createdAt,value
2022-11-23T00:00:06.264Z,99175.63
2022-11-23T00:03:16.287Z,99167.88
2022-11-23T00:06:19.770Z,99171.38
2022-11-23T00:09:23.124Z,99169.63
2022-11-23T00:12:26.259Z,99169.69
2022-11-23T00:15:32.226Z,99174.78
2022-11-23T00:18:36.132Z,99174.03
2022-11-23T00:21:39.182Z,99178.25
2022-11-23T00:24:41.880Z,99173.97
2022-11-23T00:27:44.628Z,99179.13
2022-11-23T00:30:50.706Z,99175.69
2022-11-23T00:33:55.463Z,99191.94
2022-11-23T00:36:59.425Z,99178.97
2022-11-23T00:40:02.821Z,99173.88
2022-11-23T00:43:06.049Z,99179.78
2022-11-23T00:46:15.018Z,99183.31
2022-11-23T00:49:17.665Z,99182.38
2022-11-23T00:52:21.469Z,99181.44
2022-11-23T00:55:24.010Z,99178.09
2022-11-23T00:58:27.266Z,99180.56
2022-11-23T01:01:34.223Z,99171.97
2022-11-23T01:04:39.298Z,99170.25
2022-11-23T01:07:42.009Z,99169.38
2022-11-23T01:10:45.131Z,99160.03
2022-11-23T01:13:48.538Z,99161.72
2022-11-23T01:16:51.578Z,99155.53
2022-11-23T01:19:54.510Z,99144.53
2022-11-23T01:22:57.413Z,99149.59
2022-11-23T01:26:08.586Z,99142.69
2022-11-23T01:29:12.509Z,99148.63
2022-11-23T01:32:15.126Z,99143.50
2022-11-23T01:35:17.937Z,99162.34
2022-11-23T01:38:21.171Z,99155.47
2022-11-23T01:41:28.518Z,99158.00
2022-11-23T01:44:34.032Z,99164.88
2022-11-23T01:47:37.403Z,99156.19
2022-11-23T01:50:41.546Z,99158.72
2022-11-23T01:53:51.460Z,99156.19
2022-11-23T01:56:59.546Z,99158.72
2022-11-23T02:00:02.577Z,99147.41
2022-11-23T02:03:15.941Z,99155.19
2022-11-23T02:06:21.323Z,99149.16
2022-11-23T02:09:24.907Z,99146.56
2022-11-23T02:12:28.060Z,99146.53
2022-11-23T02:15:31.395Z,99133.63
2022-11-23T02:18:36.111Z,99143.94
2022-11-23T02:21:41.089Z,99133.56
2022-11-23T02:24:53.655Z,99138.59
2022-11-23T02:27:57.334Z,99133.34
2022-11-23T02:31:03.189Z,99119.50
2022-11-23T02:34:08.004Z,99115.22
2022-11-23T02:37:11.270Z,99120.38
2022-11-23T02:40:34.495Z,99128.94
2022-11-23T02:43:37.148Z,99149.63
2022-11-23T02:46:40.380Z,99141.78
2022-11-23T02:49:49.431Z,99136.62
2022-11-23T02:52:52.899Z,99128.00
2022-11-23T02:55:55.644Z,99134.88
2022-11-23T02:59:00.295Z,99140.13
2022-11-23T03:02:05.342Z,99134.91
2022-11-23T03:05:08.491Z,99145.31
2022-11-23T03:08:11.100Z,99145.19
2022-11-23T03:11:14.254Z,99130.53
2022-11-23T03:14:17.263Z,99125.37
2022-11-23T03:17:21.913Z,99121.81
2022-11-23T03:20:25.603Z,99133.88
2022-11-23T03:23:29.199Z,99121.84
2022-11-23T03:26:31.928Z,99116.59
2022-11-23T03:29:35.854Z,99120.09
2022-11-23T03:32:39.659Z,99113.94
2022-11-23T03:35:43.688Z,99119.03
2022-11-23T03:38:49.798Z,99136.16
2022-11-23T03:41:58.605Z,99130.06
2022-11-23T03:45:03.012Z,99130.00
2022-11-23T03:48:07.272Z,99131.78
2022-11-23T03:51:11.517Z,99130.00
2022-11-23T03:54:15.083Z,99134.22
2022-11-23T03:57:24.604Z,99135.94
2022-11-23T04:00:35.858Z,99129.00
2022-11-23T04:03:39.881Z,99132.28
2022-11-23T04:06:43.590Z,99123.75
2022-11-23T04:09:47.207Z,99128.97
2022-11-23T04:12:53.564Z,99147.87
2022-11-23T04:15:57.252Z,99128.19
2022-11-23T04:19:02.066Z,99122.91
2022-11-23T04:22:07.589Z,99111.78
2022-11-23T04:25:11.344Z,99121.28
2022-11-23T04:28:14.647Z,99119.41
2022-11-23T04:31:17.941Z,99128.91
2022-11-23T04:34:21.657Z,99124.63
2022-11-23T04:37:24.768Z,99120.28
2022-11-23T04:40:29.038Z,99132.28
2022-11-23T04:43:33.608Z,99126.31
2022-11-23T04:46:37.763Z,99123.75
2022-11-23T04:49:42.822Z,99124.56
2022-11-23T04:52:47.507Z,99128.03
2022-11-23T04:55:51.962Z,99130.59
2022-11-23T04:58:55.265Z,99132.28
2022-11-23T05:01:59.706Z,99129.72
2022-11-23T05:05:11.882Z,99125.37
2022-11-23T05:08:14.878Z,99128.84
2022-11-23T05:11:20.965Z,99114.19
2022-11-23T05:14:24.345Z,99115.06
2022-11-23T05:17:27.795Z,99121.97
2022-11-23T05:20:32.014Z,99119.41
2022-11-23T05:23:36.318Z,99119.53
2022-11-23T05:26:39.681Z,99120.47
2022-11-23T05:29:43.683Z,99127.25
2022-11-23T05:32:49.543Z,99123.09
2022-11-23T05:35:54.342Z,99126.38
2022-11-23T05:39:01.586Z,99136.75
2022-11-23T05:42:05.965Z,99134.16
2022-11-23T05:45:11.739Z,99140.97
2022-11-23T05:48:18.695Z,99127.25
2022-11-23T05:51:24.576Z,99129.06
2022-11-23T05:54:30.178Z,99129.91
2022-11-23T05:57:35.233Z,99137.63
2022-11-23T06:00:42.232Z,99138.44
2022-11-23T06:03:48.548Z,99134.13
2022-11-23T06:07:01.517Z,99143.56
2022-11-23T06:10:07.704Z,99139.44
2022-11-23T06:13:11.982Z,99148.88
2022-11-23T06:16:17.731Z,99151.41
2022-11-23T06:19:22.946Z,99144.38
2022-11-23T06:22:38.521Z,99149.59
2022-11-23T06:25:43.702Z,99150.41
2022-11-23T06:28:49.850Z,99164.19
2022-11-23T06:31:55.506Z,99153.81
2022-11-23T06:35:01.227Z,99159.03
2022-11-23T06:38:15.622Z,99165.88
2022-11-23T06:41:20.482Z,99159.19
2022-11-23T06:44:23.746Z,99167.69
2022-11-23T06:47:29.049Z,99172.16
2022-11-23T06:50:35.900Z,99168.81
2022-11-23T06:53:43.423Z,99161.78
2022-11-23T06:56:48.827Z,99161.06
2022-11-23T06:59:55.951Z,99173.72
2022-11-23T07:03:02.473Z,99179.66
2022-11-23T07:06:17.485Z,99177.06
2022-11-23T07:09:21.301Z,99178.78
2022-11-23T07:12:25.553Z,99169.50
2022-11-23T07:15:29.349Z,99162.66
2022-11-23T07:18:33.477Z,99163.47
2022-11-23T07:21:39.000Z,99162.66
2022-11-23T07:24:46.486Z,99166.28
2022-11-23T07:27:55.654Z,99178.37
2022-11-23T07:30:59.848Z,99175.12
2022-11-23T07:34:05.261Z,99168.09
2022-11-23T07:37:10.680Z,99177.66
2022-11-23T07:40:16.817Z,99180.31
2022-11-23T07:43:20.776Z,99183.06
2022-11-23T07:46:28.734Z,99178.87
2022-11-23T07:49:32.995Z,99185.87
2022-11-23T07:52:44.000Z,99196.38
2022-11-23T07:55:46.906Z,99193.78
2022-11-23T07:58:51.502Z,99199.00
2022-11-23T08:01:58.768Z,99203.28
2022-11-23T08:05:04.474Z,99203.44
2022-11-23T08:08:07.526Z,99201.69
2022-11-23T08:11:14.800Z,99202.56
2022-11-23T08:14:26.811Z,99201.00
2022-11-23T08:17:32.691Z,99201.03
2022-11-23T08:20:37.544Z,99200.28
2022-11-23T08:23:41.675Z,99203.06
2022-11-23T08:26:44.823Z,99205.81
2022-11-23T08:29:52.073Z,99208.53
2022-11-23T08:32:55.687Z,99204.28
2022-11-23T08:36:06.511Z,99214.63
2022-11-23T08:39:13.482Z,99212.97
2022-11-23T08:42:26.443Z,99209.50
2022-11-23T08:45:30.984Z,99205.41
2022-11-23T08:48:34.289Z,99209.69
2022-11-23T08:51:38.773Z,99204.47
2022-11-23T08:54:48.768Z,99212.38
2022-11-23T08:57:57.763Z,99213.25
2022-11-23T09:01:12.079Z,99221.94
2022-11-23T09:04:20.478Z,99221.94
2022-11-23T09:07:25.369Z,99225.41
2022-11-23T09:10:29.081Z,99226.44
2022-11-23T09:13:34.990Z,99233.38
2022-11-23T09:16:37.927Z,99236.00
2022-11-23T09:19:42.040Z,99237.88
2022-11-23T09:22:52.505Z,99231.72
2022-11-23T09:25:59.527Z,99240.28
2022-11-23T09:29:03.257Z,99234.25
2022-11-23T09:32:08.002Z,99225.78
2022-11-23T09:35:17.503Z,99222.34
2022-11-23T09:38:33.604Z,99223.37
2022-11-23T09:41:53.445Z,99229.31
2022-11-23T09:45:24.374Z,99231.06
2022-11-23T09:48:55.547Z,99226.06
2022-11-23T09:52:10.389Z,99220.12
2022-11-23T09:55:25.714Z,99226.19
2022-11-23T09:58:38.616Z,99224.37
2022-11-23T10:01:43.132Z,99219.31
2022-11-23T10:04:46.494Z,99215.91
2022-11-23T10:08:07.454Z,99207.38
2022-11-23T10:11:19.720Z,99209.03
2022-11-23T10:14:33.083Z,99213.66
2022-11-23T10:17:55.437Z,99212.88
2022-11-23T10:21:20.006Z,99206.13
2022-11-23T10:24:34.880Z,99213.81
2022-11-23T10:27:39.097Z,99208.66
2022-11-23T10:30:43.584Z,99211.19
2022-11-23T10:34:08.771Z,99213.00
2022-11-23T10:37:16.268Z,99206.38
2022-11-23T10:40:29.626Z,99211.41
2022-11-23T10:43:45.387Z,99210.00
2022-11-23T10:46:48.714Z,99206.56
2022-11-23T10:49:59.159Z,99205.69
2022-11-23T10:53:06.202Z,99198.25
2022-11-23T10:56:14.760Z,99199.97
2022-11-23T10:59:36.510Z,99200.22
2022-11-23T11:02:43.528Z,99188.28
2022-11-23T11:06:08.615Z,99185.03
2022-11-23T11:09:21.345Z,99199.00
2022-11-23T11:12:27.751Z,99190.56
2022-11-23T11:15:32.975Z,99198.16
2022-11-23T11:18:39.848Z,99186.94
2022-11-23T11:21:43.719Z,99188.03
2022-11-23T11:24:49.173Z,99195.56
2022-11-23T11:27:53.958Z,99187.97
2022-11-23T11:31:19.041Z,99204.38
2022-11-23T11:34:25.114Z,99197.38
2022-11-23T11:37:36.529Z,99205.25
2022-11-23T11:40:48.745Z,99206.84
2022-11-23T11:44:05.202Z,99209.37
2022-11-23T11:47:48.643Z,99212.12
2022-11-23T11:50:54.709Z,99210.25
2022-11-23T11:54:13.687Z,99215.37
2022-11-23T11:57:31.169Z,99212.78
2022-11-23T12:00:43.688Z,99212.91
2022-11-23T12:03:58.186Z,99209.44
2022-11-23T12:07:33.994Z,99205.09
2022-11-23T12:10:52.663Z,99215.06
2022-11-23T12:14:04.833Z,99203.88
2022-11-23T12:17:42.418Z,99202.72
2022-11-23T12:20:56.078Z,99200.16
2022-11-23T12:24:27.085Z,99199.78
2022-11-23T12:27:48.540Z,99210.00
2022-11-23T12:31:17.258Z,99214.06
2022-11-23T12:34:50.829Z,99207.34
2022-11-23T12:38:16.099Z,99204.81
2022-11-23T12:41:39.474Z,99207.25
2022-11-23T12:44:57.750Z,99202.91
2022-11-23T12:48:25.469Z,99207.09
2022-11-23T12:51:47.713Z,99204.62
2022-11-23T12:55:03.118Z,99201.16
2022-11-23T12:58:32.691Z,99202.09
2022-11-23T13:01:44.713Z,99208.19
2022-11-23T13:05:01.705Z,99208.13
2022-11-23T13:08:53.666Z,99208.44
2022-11-23T13:12:26.917Z,99210.03
2022-11-23T13:15:59.020Z,99207.44
2022-11-23T13:19:17.495Z,99210.03
2022-11-23T13:22:24.490Z,99212.56
2022-11-23T13:25:30.415Z,99221.09
2022-11-23T13:28:36.890Z,99222.09
2022-11-23T13:31:48.013Z,99216.03
2022-11-23T13:34:57.936Z,99217.84
2022-11-23T13:38:16.539Z,99215.16
2022-11-23T13:41:34.434Z,99215.22
2022-11-23T13:44:42.490Z,99222.03
2022-11-23T13:48:48.999Z,99226.38
2022-11-23T13:52:24.505Z,99219.44
2022-11-23T13:55:39.441Z,99226.38
2022-11-23T13:58:55.161Z,99222.97
2022-11-23T14:02:08.446Z,99222.97
2022-11-23T14:05:55.295Z,99237.72
2022-11-23T14:09:09.860Z,99238.53
2022-11-23T14:12:17.863Z,99234.13
2022-11-23T14:15:31.463Z,99237.44
2022-11-23T14:18:40.692Z,99242.56
2022-11-23T14:22:19.017Z,99233.22
2022-11-23T14:25:33.415Z,99229.78
2022-11-23T14:29:01.689Z,99235.69
2022-11-23T14:32:28.435Z,99239.97
2022-11-23T14:35:54.461Z,99245.09
2022-11-23T14:39:31.382Z,99236.41
2022-11-23T14:42:43.776Z,99235.53
2022-11-23T14:45:59.594Z,99231.97
2022-11-23T14:49:18.812Z,99227.53
2022-11-23T14:52:33.389Z,99236.25
2022-11-23T14:55:40.814Z,99244.91
2022-11-23T14:58:51.265Z,99248.22
2022-11-23T15:02:42.491Z,99252.50
2022-11-23T15:05:55.661Z,99257.62
2022-11-23T15:09:21.548Z,99255.75
2022-11-23T15:12:46.226Z,99263.50
2022-11-23T15:16:06.126Z,99262.72
2022-11-23T15:19:37.476Z,99269.72
2022-11-23T15:22:45.583Z,99271.31
2022-11-23T15:26:28.587Z,99274.72
2022-11-23T15:29:55.646Z,99275.59
2022-11-23T15:33:19.505Z,99280.00
2022-11-23T15:36:27.408Z,99280.00
2022-11-23T15:39:40.484Z,99286.88
2022-11-23T15:42:57.660Z,99279.13
2022-11-23T15:46:12.942Z,99289.56
2022-11-23T15:49:21.664Z,99293.19
2022-11-23T15:52:38.731Z,99294.19
2022-11-23T15:56:02.568Z,99289.06
2022-11-23T15:59:32.769Z,99299.47
2022-11-23T16:02:42.861Z,99305.56
2022-11-23T16:06:29.461Z,99309.91
2022-11-23T16:09:51.686Z,99308.19
2022-11-23T16:13:00.772Z,99316.00
2022-11-23T16:16:17.591Z,99320.34
2022-11-23T16:19:35.051Z,99323.00
2022-11-23T16:22:49.659Z,99327.28
2022-11-23T16:25:59.941Z,99328.16
2022-11-23T16:29:39.471Z,99328.16
2022-11-23T16:32:53.771Z,99330.81
2022-11-23T16:36:01.511Z,99327.38
2022-11-23T16:39:17.366Z,99335.16
2022-11-23T16:42:20.896Z,99324.81
2022-11-23T16:45:24.809Z,99333.44
2022-11-23T16:48:41.486Z,99327.38
2022-11-23T16:51:56.297Z,99329.09
2022-11-23T16:55:14.584Z,99325.63
2022-11-23T16:58:18.921Z,99331.69
2022-11-23T17:01:32.741Z,99334.28
2022-11-23T17:04:39.434Z,99326.50
2022-11-23T17:07:46.526Z,99326.50
2022-11-23T17:11:03.826Z,99334.28
2022-11-23T17:14:18.513Z,99330.84
2022-11-23T17:17:24.458Z,99341.19
2022-11-23T17:20:40.446Z,99336.03
2022-11-23T17:23:52.369Z,99338.63
2022-11-23T17:27:10.425Z,99334.31
2022-11-23T17:30:17.577Z,99338.63
2022-11-23T17:33:21.128Z,99342.09
2022-11-23T17:36:34.321Z,99337.81
2022-11-23T17:39:38.447Z,99340.41
2022-11-23T17:42:52.310Z,99341.28
2022-11-23T17:46:06.523Z,99337.81
2022-11-23T17:49:27.823Z,99337.81
2022-11-23T17:52:42.279Z,99339.59
2022-11-23T17:55:53.401Z,99337.00
2022-11-23T17:59:16.982Z,99342.16
2022-11-23T18:02:23.878Z,99349.94
2022-11-23T18:05:37.442Z,99347.25
2022-11-23T18:08:49.618Z,99348.97
2022-11-23T18:12:06.403Z,99348.97
2022-11-23T18:15:16.436Z,99354.13
2022-11-23T18:18:26.686Z,99352.44
2022-11-23T18:21:32.076Z,99355.94
2022-11-23T18:24:42.934Z,99356.72
2022-11-23T18:27:52.438Z,99354.97
2022-11-23T18:31:01.660Z,99354.91
2022-11-23T18:34:19.261Z,99354.97
2022-11-23T18:37:29.050Z,99350.66
2022-11-23T18:40:34.626Z,99361.97
2022-11-23T18:43:52.321Z,99361.09
2022-11-23T18:47:02.428Z,99356.81
2022-11-23T18:50:19.681Z,99356.91
2022-11-23T18:53:26.747Z,99364.72
2022-11-23T18:56:32.467Z,99358.69
2022-11-23T19:00:01.641Z,99369.91
2022-11-23T19:03:14.986Z,99370.78
2022-11-23T19:06:25.660Z,99363.84
2022-11-23T19:09:40.322Z,99371.59
2022-11-23T19:13:03.679Z,99372.47
2022-11-23T19:16:29.318Z,99374.25
2022-11-23T19:19:35.823Z,99373.38
2022-11-23T19:22:40.212Z,99375.06
2022-11-23T19:25:43.912Z,99379.41
2022-11-23T19:28:53.560Z,99382.88
2022-11-23T19:32:05.207Z,99391.47
2022-11-23T19:35:10.436Z,99390.66
2022-11-23T19:38:29.263Z,99386.28
2022-11-23T19:41:49.354Z,99393.19
2022-11-23T19:45:00.448Z,99395.75
2022-11-23T19:48:13.763Z,99395.72
2022-11-23T19:51:30.586Z,99399.13
2022-11-23T19:54:48.278Z,99400.81
2022-11-23T19:57:57.347Z,99398.97
2022-11-23T20:01:16.575Z,99399.91
2022-11-23T20:04:24.632Z,99402.53
2022-11-23T20:07:44.519Z,99405.19
2022-11-23T20:10:49.608Z,99405.19
2022-11-23T20:14:02.895Z,99404.25
2022-11-23T20:17:08.039Z,99415.53
2022-11-23T20:20:16.500Z,99419.00
2022-11-23T20:23:24.364Z,99422.50
2022-11-23T20:26:37.416Z,99425.03
2022-11-23T20:29:45.136Z,99425.91
2022-11-23T20:32:58.980Z,99423.38
2022-11-23T20:36:20.619Z,99422.50
2022-11-23T20:39:28.552Z,99428.50
2022-11-23T20:42:38.599Z,99425.97
2022-11-23T20:45:46.405Z,99432.03
2022-11-23T20:48:59.366Z,99433.72
2022-11-23T20:52:04.568Z,99437.16
2022-11-23T20:55:23.265Z,99440.56
2022-11-23T20:58:37.251Z,99450.03
2022-11-23T21:01:41.495Z,99447.38
2022-11-23T21:04:55.698Z,99447.38
2022-11-23T21:08:00.084Z,99444.53
2022-11-23T21:11:42.432Z,99451.69
2022-11-23T21:14:49.406Z,99446.34
2022-11-23T21:17:52.605Z,99446.44
2022-11-23T21:20:57.795Z,99452.50
2022-11-23T21:24:01.340Z,99457.72
2022-11-23T21:27:08.623Z,99451.69
2022-11-23T21:30:13.264Z,99455.09
2022-11-23T21:33:26.598Z,99454.19
2022-11-23T21:36:30.262Z,99455.88
2022-11-23T21:39:33.693Z,99461.97
2022-11-23T21:42:40.520Z,99468.00
2022-11-23T21:45:45.344Z,99462.75
2022-11-23T21:48:48.490Z,99467.13
2022-11-23T21:51:53.044Z,99468.81
2022-11-23T21:55:10.333Z,99472.16
2022-11-23T21:58:17.344Z,99479.16
2022-11-23T22:01:21.880Z,99479.09
2022-11-23T22:04:26.116Z,99481.75
2022-11-23T22:07:32.420Z,99486.12
2022-11-23T22:10:38.451Z,99478.28
2022-11-23T22:13:43.681Z,99478.09
2022-11-23T22:16:54.597Z,99486.91
2022-11-23T22:19:59.777Z,99484.31
2022-11-23T22:23:05.539Z,99482.56
2022-11-23T22:26:12.557Z,99486.91
2022-11-23T22:29:17.547Z,99486.03
2022-11-23T22:32:24.797Z,99484.41
2022-11-23T22:35:28.916Z,99481.63
2022-11-23T22:38:35.336Z,99489.59
2022-11-23T22:41:42.970Z,99488.63
2022-11-23T22:44:46.599Z,99492.09
2022-11-23T22:47:50.663Z,99491.97
2022-11-23T22:51:01.726Z,99499.09
2022-11-23T22:54:05.265Z,99503.34
2022-11-23T22:57:08.338Z,99508.50
2022-11-23T23:00:12.707Z,99496.47
2022-11-23T23:03:15.917Z,99505.00
2022-11-23T23:06:22.091Z,99512.87
2022-11-23T23:09:26.080Z,99512.78
2022-11-23T23:12:31.705Z,99520.53
2022-11-23T23:15:34.625Z,99525.69
2022-11-23T23:18:38.260Z,99524.03
2022-11-23T23:21:41.215Z,99531.78
2022-11-23T23:24:45.044Z,99524.91
2022-11-23T23:27:48.500Z,99524.81
2022-11-23T23:30:53.213Z,99533.47
2022-11-23T23:33:57.105Z,99534.38
2022-11-23T23:37:00.857Z,99525.69
2022-11-23T23:40:06.304Z,99531.84
2022-11-23T23:43:10.571Z,99543.03
2022-11-23T23:46:14.021Z,99543.91
2022-11-23T23:49:17.593Z,99541.31
2022-11-23T23:52:20.631Z,99535.94
2022-11-23T23:55:24.797Z,99542.13
2022-11-23T23:58:30.037Z,99547.22
